sensor_id;sensor_type;location;lat;lon;timestamp;P1;durP1;ratioP1;P2;durP2;ratioP2
7647;SDS011;3866;48.020;11.720;2023-05-02T00:02:11;3.77;;;3.37;;
7647;SDS011;3866;48.020;11.720;2023-05-02T00:04:38;3.80;;;3.40;;
7647;SDS011;3866;48.020;11.720;2023-05-02T00:07:05;3.60;;;3.30;;
7647;SDS011;3866;48.020;11.720;2023-05-02T00:09:33;3.70;;;3.23;;
7647;SDS011;3866;48.020;11.720;2023-05-02T00:12:00;4.03;;;2.80;;
7647;SDS011;3866;48.020;11.720;2023-05-02T00:14:28;3.50;;;3.20;;
7647;SDS011;3866;48.020;11.720;2023-05-02T00:16:55;3.17;;;2.87;;
7647;SDS011;3866;48.020;11.720;2023-05-02T00:19:22;4.13;;;3.10;;
7647;SDS011;3866;48.020;11.720;2023-05-02T00:21:48;3.50;;;3.20;;
7647;SDS011;3866;48.020;11.720;2023-05-02T00:24:16;3.23;;;2.93;;
7647;SDS011;3866;48.020;11.720;2023-05-02T00:26:44;3.93;;;2.83;;
7647;SDS011;3866;48.020;11.720;2023-05-02T00:29:11;3.17;;;2.87;;
7647;SDS011;3866;48.020;11.720;2023-05-02T00:31:39;2.87;;;2.63;;
7647;SDS011;3866;48.020;11.720;2023-05-02T00:34:06;2.47;;;2.27;;
7647;SDS011;3866;48.020;11.720;2023-05-02T00:36:33;3.17;;;2.87;;
7647;SDS011;3866;48.020;11.720;2023-05-02T00:39:00;3.00;;;2.70;;
7647;SDS011;3866;48.020;11.720;2023-05-02T00:41:26;2.97;;;2.67;;
7647;SDS011;3866;48.020;11.720;2023-05-02T00:43:55;3.33;;;3.03;;
7647;SDS011;3866;48.020;11.720;2023-05-02T00:46:22;3.20;;;2.90;;
7647;SDS011;3866;48.020;11.720;2023-05-02T00:48:50;3.00;;;2.80;;
7647;SDS011;3866;48.020;11.720;2023-05-02T00:51:17;3.43;;;2.77;;
7647;SDS011;3866;48.020;11.720;2023-05-02T00:53:44;2.80;;;2.60;;
7647;SDS011;3866;48.020;11.720;2023-05-02T00:56:11;2.90;;;2.60;;
7647;SDS011;3866;48.020;11.720;2023-05-02T00:58:38;3.30;;;3.10;;
7647;SDS011;3866;48.020;11.720;2023-05-02T01:01:10;2.90;;;2.60;;
7647;SDS011;3866;48.020;11.720;2023-05-02T01:03:49;3.33;;;2.67;;
7647;SDS011;3866;48.020;11.720;2023-05-02T01:06:27;3.23;;;2.33;;
7647;SDS011;3866;48.020;11.720;2023-05-02T01:09:02;2.60;;;2.40;;
7647;SDS011;3866;48.020;11.720;2023-05-02T01:11:47;2.50;;;2.30;;
7647;SDS011;3866;48.020;11.720;2023-05-02T01:14:21;3.17;;;2.53;;
7647;SDS011;3866;48.020;11.720;2023-05-02T01:16:51;2.93;;;2.67;;
7647;SDS011;3866;48.020;11.720;2023-05-02T01:19:21;2.50;;;2.30;;
7647;SDS011;3866;48.020;11.720;2023-05-02T01:21:51;2.77;;;2.57;;
7647;SDS011;3866;48.020;11.720;2023-05-02T01:24:22;2.23;;;1.97;;
7647;SDS011;3866;48.020;11.720;2023-05-02T01:26:55;4.40;;;2.50;;
7647;SDS011;3866;48.020;11.720;2023-05-02T01:29:30;2.70;;;2.50;;
7647;SDS011;3866;48.020;11.720;2023-05-02T01:31:59;2.90;;;2.70;;
7647;SDS011;3866;48.020;11.720;2023-05-02T01:34:28;2.97;;;2.77;;
7647;SDS011;3866;48.020;11.720;2023-05-02T01:36:57;3.47;;;2.73;;
7647;SDS011;3866;48.020;11.720;2023-05-02T01:39:26;5.23;;;2.73;;
7647;SDS011;3866;48.020;11.720;2023-05-02T01:41:54;2.53;;;2.30;;
7647;SDS011;3866;48.020;11.720;2023-05-02T01:44:24;2.80;;;2.50;;
7647;SDS011;3866;48.020;11.720;2023-05-02T01:46:55;2.90;;;2.60;;
7647;SDS011;3866;48.020;11.720;2023-05-02T01:49:23;3.10;;;2.53;;
7647;SDS011;3866;48.020;11.720;2023-05-02T01:51:51;2.70;;;2.50;;
7647;SDS011;3866;48.020;11.720;2023-05-02T01:54:19;2.00;;;1.90;;
7647;SDS011;3866;48.020;11.720;2023-05-02T01:56:48;2.53;;;2.33;;
7647;SDS011;3866;48.020;11.720;2023-05-02T01:59:17;2.73;;;2.50;;
7647;SDS011;3866;48.020;11.720;2023-05-02T02:01:45;2.13;;;2.03;;
7647;SDS011;3866;48.020;11.720;2023-05-02T02:04:16;2.27;;;2.10;;
7647;SDS011;3866;48.020;11.720;2023-05-02T02:06:45;3.30;;;2.50;;
7647;SDS011;3866;48.020;11.720;2023-05-02T02:09:17;2.30;;;2.10;;
7647;SDS011;3866;48.020;11.720;2023-05-02T02:11:45;2.53;;;2.33;;
7647;SDS011;3866;48.020;11.720;2023-05-02T02:14:17;2.80;;;2.50;;
7647;SDS011;3866;48.020;11.720;2023-05-02T02:16:46;2.30;;;1.97;;
7647;SDS011;3866;48.020;11.720;2023-05-02T02:19:18;2.07;;;1.87;;
7647;SDS011;3866;48.020;11.720;2023-05-02T02:21:46;4.63;;;2.37;;
7647;SDS011;3866;48.020;11.720;2023-05-02T02:24:15;2.70;;;2.50;;
7647;SDS011;3866;48.020;11.720;2023-05-02T02:26:45;2.90;;;2.70;;
7647;SDS011;3866;48.020;11.720;2023-05-02T02:29:12;2.90;;;2.70;;
7647;SDS011;3866;48.020;11.720;2023-05-02T02:31:39;3.67;;;2.63;;
7647;SDS011;3866;48.020;11.720;2023-05-02T02:34:06;3.47;;;2.53;;
7647;SDS011;3866;48.020;11.720;2023-05-02T02:36:35;2.83;;;2.63;;
7647;SDS011;3866;48.020;11.720;2023-05-02T02:39:11;3.03;;;2.77;;
7647;SDS011;3866;48.020;11.720;2023-05-02T02:41:46;2.70;;;2.50;;
7647;SDS011;3866;48.020;11.720;2023-05-02T02:44:31;3.20;;;2.70;;
7647;SDS011;3866;48.020;11.720;2023-05-02T02:47:05;2.90;;;2.70;;
7647;SDS011;3866;48.020;11.720;2023-05-02T02:49:43;3.27;;;2.70;;
7647;SDS011;3866;48.020;11.720;2023-05-02T02:52:17;3.20;;;2.90;;
7647;SDS011;3866;48.020;11.720;2023-05-02T02:54:55;2.63;;;2.33;;
7647;SDS011;3866;48.020;11.720;2023-05-02T02:57:26;2.50;;;2.37;;
7647;SDS011;3866;48.020;11.720;2023-05-02T02:59:57;3.10;;;2.80;;
7647;SDS011;3866;48.020;11.720;2023-05-02T03:02:29;3.43;;;2.80;;
7647;SDS011;3866;48.020;11.720;2023-05-02T03:04:57;4.07;;;2.50;;
7647;SDS011;3866;48.020;11.720;2023-05-02T03:07:29;2.77;;;2.57;;
7647;SDS011;3866;48.020;11.720;2023-05-02T03:09:56;3.43;;;2.90;;
7647;SDS011;3866;48.020;11.720;2023-05-02T03:12:23;2.83;;;2.53;;
7647;SDS011;3866;48.020;11.720;2023-05-02T03:14:50;2.63;;;2.43;;
7647;SDS011;3866;48.020;11.720;2023-05-02T03:17:17;5.33;;;2.70;;
7647;SDS011;3866;48.020;11.720;2023-05-02T03:19:44;2.67;;;2.47;;
7647;SDS011;3866;48.020;11.720;2023-05-02T03:22:11;3.57;;;2.70;;
7647;SDS011;3866;48.020;11.720;2023-05-02T03:24:39;2.60;;;2.40;;
7647;SDS011;3866;48.020;11.720;2023-05-02T03:27:06;2.87;;;2.67;;
7647;SDS011;3866;48.020;11.720;2023-05-02T03:29:33;2.90;;;2.70;;
7647;SDS011;3866;48.020;11.720;2023-05-02T03:32:00;2.97;;;2.70;;
7647;SDS011;3866;48.020;11.720;2023-05-02T03:34:26;2.50;;;2.30;;
7647;SDS011;3866;48.020;11.720;2023-05-02T03:36:53;3.57;;;2.30;;
7647;SDS011;3866;48.020;11.720;2023-05-02T03:39:20;2.63;;;2.43;;
7647;SDS011;3866;48.020;11.720;2023-05-02T03:41:48;2.57;;;2.10;;
7647;SDS011;3866;48.020;11.720;2023-05-02T03:44:15;3.97;;;2.73;;
7647;SDS011;3866;48.020;11.720;2023-05-02T03:46:42;2.70;;;2.50;;
7647;SDS011;3866;48.020;11.720;2023-05-02T03:49:09;3.00;;;2.80;;
7647;SDS011;3866;48.020;11.720;2023-05-02T03:51:36;2.13;;;2.00;;
7647;SDS011;3866;48.020;11.720;2023-05-02T03:54:03;2.97;;;2.70;;
7647;SDS011;3866;48.020;11.720;2023-05-02T03:56:30;2.70;;;2.17;;
7647;SDS011;3866;48.020;11.720;2023-05-02T03:58:58;2.30;;;2.10;;
7647;SDS011;3866;48.020;11.720;2023-05-02T04:01:25;2.67;;;2.47;;
7647;SDS011;3866;48.020;11.720;2023-05-02T04:03:52;5.10;;;2.00;;
7647;SDS011;3866;48.020;11.720;2023-05-02T04:06:19;2.30;;;2.10;;
7647;SDS011;3866;48.020;11.720;2023-05-02T04:08:45;1.97;;;1.87;;
7647;SDS011;3866;48.020;11.720;2023-05-02T04:11:12;4.10;;;2.57;;
7647;SDS011;3866;48.020;11.720;2023-05-02T04:13:39;2.30;;;2.10;;
7647;SDS011;3866;48.020;11.720;2023-05-02T04:16:08;2.87;;;2.67;;
7647;SDS011;3866;48.020;11.720;2023-05-02T04:18:35;3.00;;;2.80;;
7647;SDS011;3866;48.020;11.720;2023-05-02T04:21:02;2.27;;;2.07;;
7647;SDS011;3866;48.020;11.720;2023-05-02T04:23:29;2.53;;;2.33;;
7647;SDS011;3866;48.020;11.720;2023-05-02T04:25:56;2.87;;;1.80;;
7647;SDS011;3866;48.020;11.720;2023-05-02T04:28:23;2.47;;;2.27;;
7647;SDS011;3866;48.020;11.720;2023-05-02T04:30:49;3.53;;;2.07;;
7647;SDS011;3866;48.020;11.720;2023-05-02T04:33:18;1.80;;;1.70;;
7647;SDS011;3866;48.020;11.720;2023-05-02T04:35:45;2.77;;;1.90;;
7647;SDS011;3866;48.020;11.720;2023-05-02T04:38:12;2.83;;;2.07;;
7647;SDS011;3866;48.020;11.720;2023-05-02T04:40:39;3.17;;;2.17;;
7647;SDS011;3866;48.020;11.720;2023-05-02T04:43:06;2.27;;;2.03;;
7647;SDS011;3866;48.020;11.720;2023-05-02T04:45:34;2.67;;;2.47;;
7647;SDS011;3866;48.020;11.720;2023-05-02T04:48:01;2.33;;;2.13;;
7647;SDS011;3866;48.020;11.720;2023-05-02T04:50:29;2.40;;;2.20;;
7647;SDS011;3866;48.020;11.720;2023-05-02T04:52:57;2.03;;;1.83;;
7647;SDS011;3866;48.020;11.720;2023-05-02T04:55:24;3.03;;;2.20;;
7647;SDS011;3866;48.020;11.720;2023-05-02T04:57:51;4.17;;;3.03;;
7647;SDS011;3866;48.020;11.720;2023-05-02T05:00:17;2.70;;;2.50;;
7647;SDS011;3866;48.020;11.720;2023-05-02T05:02:45;3.00;;;2.10;;
7647;SDS011;3866;48.020;11.720;2023-05-02T05:05:12;3.13;;;2.17;;
7647;SDS011;3866;48.020;11.720;2023-05-02T05:07:40;2.37;;;2.17;;
7647;SDS011;3866;48.020;11.720;2023-05-02T05:10:08;1.70;;;1.60;;
7647;SDS011;3866;48.020;11.720;2023-05-02T05:12:36;2.23;;;2.03;;
7647;SDS011;3866;48.020;11.720;2023-05-02T05:15:03;3.60;;;2.07;;
7647;SDS011;3866;48.020;11.720;2023-05-02T05:17:31;2.40;;;2.03;;
7647;SDS011;3866;48.020;11.720;2023-05-02T05:19:58;1.97;;;1.87;;
7647;SDS011;3866;48.020;11.720;2023-05-02T05:22:25;2.13;;;1.90;;
7647;SDS011;3866;48.020;11.720;2023-05-02T05:24:53;2.20;;;1.67;;
7647;SDS011;3866;48.020;11.720;2023-05-02T05:27:21;1.97;;;1.87;;
7647;SDS011;3866;48.020;11.720;2023-05-02T05:29:47;2.37;;;1.80;;
7647;SDS011;3866;48.020;11.720;2023-05-02T05:32:14;1.80;;;1.70;;
7647;SDS011;3866;48.020;11.720;2023-05-02T05:34:41;3.53;;;2.07;;
7647;SDS011;3866;48.020;11.720;2023-05-02T05:37:08;1.93;;;1.83;;
7647;SDS011;3866;48.020;11.720;2023-05-02T05:39:35;1.80;;;1.70;;
7647;SDS011;3866;48.020;11.720;2023-05-02T05:42:03;1.87;;;1.77;;
7647;SDS011;3866;48.020;11.720;2023-05-02T05:44:33;1.70;;;1.60;;
7647;SDS011;3866;48.020;11.720;2023-05-02T05:47:00;1.90;;;1.80;;
7647;SDS011;3866;48.020;11.720;2023-05-02T05:49:27;3.87;;;2.03;;
7647;SDS011;3866;48.020;11.720;2023-05-02T05:51:54;4.20;;;3.80;;
7647;SDS011;3866;48.020;11.720;2023-05-02T05:54:21;2.50;;;2.30;;
7647;SDS011;3866;48.020;11.720;2023-05-02T05:56:48;3.57;;;2.10;;
7647;SDS011;3866;48.020;11.720;2023-05-02T05:59:16;2.00;;;1.80;;
7647;SDS011;3866;48.020;11.720;2023-05-02T06:01:43;2.37;;;2.17;;
7647;SDS011;3866;48.020;11.720;2023-05-02T06:04:10;3.73;;;2.17;;
7647;SDS011;3866;48.020;11.720;2023-05-02T06:06:37;3.37;;;2.10;;
7647;SDS011;3866;48.020;11.720;2023-05-02T06:09:04;2.33;;;1.90;;
7647;SDS011;3866;48.020;11.720;2023-05-02T06:11:31;2.87;;;2.20;;
7647;SDS011;3866;48.020;11.720;2023-05-02T06:13:58;2.60;;;2.20;;
7647;SDS011;3866;48.020;11.720;2023-05-02T06:16:26;2.67;;;2.27;;
7647;SDS011;3866;48.020;11.720;2023-05-02T06:18:53;2.40;;;2.20;;
7647;SDS011;3866;48.020;11.720;2023-05-02T06:21:20;2.57;;;2.37;;
7647;SDS011;3866;48.020;11.720;2023-05-02T06:23:46;2.70;;;2.40;;
7647;SDS011;3866;48.020;11.720;2023-05-02T06:26:13;2.77;;;2.57;;
7647;SDS011;3866;48.020;11.720;2023-05-02T06:28:40;2.97;;;2.50;;
7647;SDS011;3866;48.020;11.720;2023-05-02T06:31:08;4.20;;;3.80;;
7647;SDS011;3866;48.020;11.720;2023-05-02T06:33:36;3.70;;;3.40;;
7647;SDS011;3866;48.020;11.720;2023-05-02T06:36:03;3.20;;;2.43;;
7647;SDS011;3866;48.020;11.720;2023-05-02T06:38:30;3.40;;;3.07;;
7647;SDS011;3866;48.020;11.720;2023-05-02T06:40:57;2.80;;;2.60;;
7647;SDS011;3866;48.020;11.720;2023-05-02T06:43:27;2.90;;;2.70;;
7647;SDS011;3866;48.020;11.720;2023-05-02T06:45:56;4.20;;;2.90;;
7647;SDS011;3866;48.020;11.720;2023-05-02T06:48:22;3.10;;;2.90;;
7647;SDS011;3866;48.020;11.720;2023-05-02T06:50:51;3.20;;;2.90;;
7647;SDS011;3866;48.020;11.720;2023-05-02T06:53:18;2.90;;;2.63;;
7647;SDS011;3866;48.020;11.720;2023-05-02T06:55:45;2.87;;;2.63;;
7647;SDS011;3866;48.020;11.720;2023-05-02T06:58:13;3.07;;;2.80;;
7647;SDS011;3866;48.020;11.720;2023-05-02T07:00:40;2.93;;;2.67;;
7647;SDS011;3866;48.020;11.720;2023-05-02T07:03:07;3.53;;;3.00;;
7647;SDS011;3866;48.020;11.720;2023-05-02T07:05:35;4.50;;;2.70;;
7647;SDS011;3866;48.020;11.720;2023-05-02T07:08:03;2.67;;;2.47;;
7647;SDS011;3866;48.020;11.720;2023-05-02T07:10:30;5.80;;;3.00;;
7647;SDS011;3866;48.020;11.720;2023-05-02T07:12:57;4.20;;;2.73;;
7647;SDS011;3866;48.020;11.720;2023-05-02T07:15:24;2.43;;;2.27;;
7647;SDS011;3866;48.020;11.720;2023-05-02T07:17:51;2.13;;;1.97;;
7647;SDS011;3866;48.020;11.720;2023-05-02T07:20:18;5.17;;;2.80;;
7647;SDS011;3866;48.020;11.720;2023-05-02T07:22:45;2.20;;;2.10;;
7647;SDS011;3866;48.020;11.720;2023-05-02T07:25:13;4.10;;;2.67;;
7647;SDS011;3866;48.020;11.720;2023-05-02T07:27:40;3.50;;;2.63;;
7647;SDS011;3866;48.020;11.720;2023-05-02T07:30:07;6.67;;;3.47;;
7647;SDS011;3866;48.020;11.720;2023-05-02T07:32:34;4.20;;;3.07;;
7647;SDS011;3866;48.020;11.720;2023-05-02T07:35:01;4.53;;;4.00;;
7647;SDS011;3866;48.020;11.720;2023-05-02T07:37:32;3.07;;;2.87;;
7647;SDS011;3866;48.020;11.720;2023-05-02T07:40:00;3.63;;;3.33;;
7647;SDS011;3866;48.020;11.720;2023-05-02T07:42:29;3.37;;;3.07;;
7647;SDS011;3866;48.020;11.720;2023-05-02T07:44:56;4.57;;;3.30;;
7647;SDS011;3866;48.020;11.720;2023-05-02T07:47:24;3.33;;;3.03;;
7647;SDS011;3866;48.020;11.720;2023-05-02T07:49:51;3.93;;;3.37;;
7647;SDS011;3866;48.020;11.720;2023-05-02T07:52:19;6.07;;;4.27;;
7647;SDS011;3866;48.020;11.720;2023-05-02T07:54:46;7.80;;;4.30;;
7647;SDS011;3866;48.020;11.720;2023-05-02T07:57:14;4.43;;;4.03;;
7647;SDS011;3866;48.020;11.720;2023-05-02T07:59:42;3.43;;;3.13;;
7647;SDS011;3866;48.020;11.720;2023-05-02T08:02:09;4.20;;;3.23;;
7647;SDS011;3866;48.020;11.720;2023-05-02T08:04:37;4.90;;;3.43;;
7647;SDS011;3866;48.020;11.720;2023-05-02T08:07:05;4.03;;;3.73;;
7647;SDS011;3866;48.020;11.720;2023-05-02T08:09:35;4.30;;;3.90;;
7647;SDS011;3866;48.020;11.720;2023-05-02T08:12:01;5.87;;;4.63;;
7647;SDS011;3866;48.020;11.720;2023-05-02T08:14:29;4.57;;;4.03;;
7647;SDS011;3866;48.020;11.720;2023-05-02T08:16:57;4.40;;;3.97;;
7647;SDS011;3866;48.020;11.720;2023-05-02T08:19:24;6.47;;;4.40;;
7647;SDS011;3866;48.020;11.720;2023-05-02T08:21:52;4.20;;;3.80;;
7647;SDS011;3866;48.020;11.720;2023-05-02T08:24:19;4.43;;;4.03;;
7647;SDS011;3866;48.020;11.720;2023-05-02T08:26:46;4.47;;;3.87;;
7647;SDS011;3866;48.020;11.720;2023-05-02T08:29:13;5.63;;;4.90;;
7647;SDS011;3866;48.020;11.720;2023-05-02T08:31:40;6.00;;;5.03;;
7647;SDS011;3866;48.020;11.720;2023-05-02T08:34:08;4.20;;;3.90;;
7647;SDS011;3866;48.020;11.720;2023-05-02T08:36:35;4.23;;;3.70;;
7647;SDS011;3866;48.020;11.720;2023-05-02T08:39:02;5.40;;;4.13;;
7647;SDS011;3866;48.020;11.720;2023-05-02T08:41:31;5.50;;;4.93;;
7647;SDS011;3866;48.020;11.720;2023-05-02T08:43:58;6.80;;;5.77;;
7647;SDS011;3866;48.020;11.720;2023-05-02T08:46:25;5.23;;;4.60;;
7647;SDS011;3866;48.020;11.720;2023-05-02T08:48:53;5.00;;;4.50;;
7647;SDS011;3866;48.020;11.720;2023-05-02T08:51:24;4.80;;;4.40;;
7647;SDS011;3866;48.020;11.720;2023-05-02T08:53:52;5.53;;;4.60;;
7647;SDS011;3866;48.020;11.720;2023-05-02T08:56:20;6.93;;;4.80;;
7647;SDS011;3866;48.020;11.720;2023-05-02T08:58:47;5.10;;;4.37;;
7647;SDS011;3866;48.020;11.720;2023-05-02T09:01:14;5.67;;;5.07;;
7647;SDS011;3866;48.020;11.720;2023-05-02T09:03:43;5.70;;;5.20;;
7647;SDS011;3866;48.020;11.720;2023-05-02T09:06:11;8.27;;;6.70;;
7647;SDS011;3866;48.020;11.720;2023-05-02T09:08:42;11.37;;;6.67;;
7647;SDS011;3866;48.020;11.720;2023-05-02T09:11:10;6.37;;;5.37;;
7647;SDS011;3866;48.020;11.720;2023-05-02T09:13:38;6.73;;;5.67;;
7647;SDS011;3866;48.020;11.720;2023-05-02T09:16:07;6.10;;;5.47;;
7647;SDS011;3866;48.020;11.720;2023-05-02T09:18:35;6.60;;;5.80;;
7647;SDS011;3866;48.020;11.720;2023-05-02T09:21:04;8.00;;;4.83;;
7647;SDS011;3866;48.020;11.720;2023-05-02T09:23:37;5.77;;;5.17;;
7647;SDS011;3866;48.020;11.720;2023-05-02T09:26:16;5.37;;;4.67;;
7647;SDS011;3866;48.020;11.720;2023-05-02T09:28:44;6.83;;;5.80;;
7647;SDS011;3866;48.020;11.720;2023-05-02T09:31:13;5.90;;;5.27;;
7647;SDS011;3866;48.020;11.720;2023-05-02T09:33:41;6.93;;;6.33;;
7647;SDS011;3866;48.020;11.720;2023-05-02T09:36:09;6.70;;;6.10;;
7647;SDS011;3866;48.020;11.720;2023-05-02T09:38:38;7.33;;;5.70;;
7647;SDS011;3866;48.020;11.720;2023-05-02T09:41:05;6.10;;;5.43;;
7647;SDS011;3866;48.020;11.720;2023-05-02T09:43:33;5.77;;;4.80;;
7647;SDS011;3866;48.020;11.720;2023-05-02T09:46:01;5.27;;;4.80;;
7647;SDS011;3866;48.020;11.720;2023-05-02T09:48:30;7.20;;;5.57;;
7647;SDS011;3866;48.020;11.720;2023-05-02T09:50:58;6.10;;;5.47;;
7647;SDS011;3866;48.020;11.720;2023-05-02T09:53:26;7.33;;;6.10;;
7647;SDS011;3866;48.020;11.720;2023-05-02T09:56:00;7.60;;;6.80;;
7647;SDS011;3866;48.020;11.720;2023-05-02T09:58:27;7.27;;;6.30;;
7647;SDS011;3866;48.020;11.720;2023-05-02T10:00:57;9.73;;;6.80;;
7647;SDS011;3866;48.020;11.720;2023-05-02T10:03:25;7.57;;;6.17;;
7647;SDS011;3866;48.020;11.720;2023-05-02T10:05:53;7.20;;;6.50;;
7647;SDS011;3866;48.020;11.720;2023-05-02T10:08:24;7.03;;;6.30;;
7647;SDS011;3866;48.020;11.720;2023-05-02T10:10:52;10.07;;;6.77;;
7647;SDS011;3866;48.020;11.720;2023-05-02T10:13:22;7.10;;;6.40;;
7647;SDS011;3866;48.020;11.720;2023-05-02T10:15:58;6.97;;;6.23;;
7647;SDS011;3866;48.020;11.720;2023-05-02T10:18:28;7.00;;;5.70;;
7647;SDS011;3866;48.020;11.720;2023-05-02T10:20:59;6.97;;;6.27;;
7647;SDS011;3866;48.020;11.720;2023-05-02T10:23:30;7.10;;;6.40;;
7647;SDS011;3866;48.020;11.720;2023-05-02T10:25:59;7.13;;;6.23;;
7647;SDS011;3866;48.020;11.720;2023-05-02T10:28:27;6.53;;;5.90;;
7647;SDS011;3866;48.020;11.720;2023-05-02T10:30:55;7.03;;;6.40;;
7647;SDS011;3866;48.020;11.720;2023-05-02T10:33:24;6.60;;;5.63;;
7647;SDS011;3866;48.020;11.720;2023-05-02T10:35:52;6.37;;;5.80;;
7647;SDS011;3866;48.020;11.720;2023-05-02T10:38:20;6.27;;;5.40;;
7647;SDS011;3866;48.020;11.720;2023-05-02T10:40:49;6.30;;;5.70;;
7647;SDS011;3866;48.020;11.720;2023-05-02T10:43:20;7.13;;;5.63;;
7647;SDS011;3866;48.020;11.720;2023-05-02T10:45:52;6.10;;;5.60;;
7647;SDS011;3866;48.020;11.720;2023-05-02T10:48:20;5.50;;;5.00;;
7647;SDS011;3866;48.020;11.720;2023-05-02T10:50:50;5.03;;;4.63;;
7647;SDS011;3866;48.020;11.720;2023-05-02T10:53:25;5.83;;;5.33;;
7647;SDS011;3866;48.020;11.720;2023-05-02T10:56:12;8.07;;;6.03;;
7647;SDS011;3866;48.020;11.720;2023-05-02T10:58:41;5.57;;;4.70;;
7647;SDS011;3866;48.020;11.720;2023-05-02T11:03:58;6.73;;;4.77;;
7647;SDS011;3866;48.020;11.720;2023-05-02T11:06:28;5.10;;;4.63;;
7647;SDS011;3866;48.020;11.720;2023-05-02T11:12:00;7.07;;;4.90;;
7647;SDS011;3866;48.020;11.720;2023-05-02T11:14:45;5.13;;;4.73;;
7647;SDS011;3866;48.020;11.720;2023-05-02T11:17:12;6.33;;;5.73;;
7647;SDS011;3866;48.020;11.720;2023-05-02T11:22:53;5.20;;;4.70;;
7647;SDS011;3866;48.020;11.720;2023-05-02T11:25:28;5.47;;;4.70;;
7647;SDS011;3866;48.020;11.720;2023-05-02T11:28:03;5.83;;;4.90;;
7647;SDS011;3866;48.020;11.720;2023-05-02T11:30:53;5.77;;;5.27;;
7647;SDS011;3866;48.020;11.720;2023-05-02T11:33:20;5.63;;;5.13;;
7647;SDS011;3866;48.020;11.720;2023-05-02T11:35:47;5.50;;;5.00;;
7647;SDS011;3866;48.020;11.720;2023-05-02T11:38:17;5.53;;;5.03;;
7647;SDS011;3866;48.020;11.720;2023-05-02T11:40:50;5.10;;;4.70;;
7647;SDS011;3866;48.020;11.720;2023-05-02T11:43:19;6.93;;;6.33;;
7647;SDS011;3866;48.020;11.720;2023-05-02T11:45:47;8.50;;;5.70;;
7647;SDS011;3866;48.020;11.720;2023-05-02T11:48:15;6.00;;;5.10;;
7647;SDS011;3866;48.020;11.720;2023-05-02T11:50:43;5.37;;;4.63;;
7647;SDS011;3866;48.020;11.720;2023-05-02T11:53:11;5.10;;;4.60;;
7647;SDS011;3866;48.020;11.720;2023-05-02T11:55:44;4.37;;;3.97;;
7647;SDS011;3866;48.020;11.720;2023-05-02T11:58:13;4.37;;;4.00;;
7647;SDS011;3866;48.020;11.720;2023-05-02T12:00:41;4.87;;;4.47;;
7647;SDS011;3866;48.020;11.720;2023-05-02T12:05:53;5.80;;;4.90;;
7647;SDS011;3866;48.020;11.720;2023-05-02T12:08:21;5.83;;;4.57;;
7647;SDS011;3866;48.020;11.720;2023-05-02T12:10:52;7.33;;;4.73;;
7647;SDS011;3866;48.020;11.720;2023-05-02T12:13:21;7.43;;;5.53;;
7647;SDS011;3866;48.020;11.720;2023-05-02T12:15:49;7.27;;;6.40;;
7647;SDS011;3866;48.020;11.720;2023-05-02T12:18:17;7.63;;;6.33;;
7647;SDS011;3866;48.020;11.720;2023-05-02T12:20:47;7.53;;;6.13;;
7647;SDS011;3866;48.020;11.720;2023-05-02T12:23:15;7.13;;;6.10;;
7647;SDS011;3866;48.020;11.720;2023-05-02T12:25:42;7.13;;;6.47;;
7647;SDS011;3866;48.020;11.720;2023-05-02T12:28:10;7.43;;;6.27;;
7647;SDS011;3866;48.020;11.720;2023-05-02T12:30:38;8.33;;;5.80;;
7647;SDS011;3866;48.020;11.720;2023-05-02T12:33:05;6.67;;;5.93;;
7647;SDS011;3866;48.020;11.720;2023-05-02T12:35:33;8.27;;;6.53;;
7647;SDS011;3866;48.020;11.720;2023-05-02T12:38:07;6.53;;;5.93;;
7647;SDS011;3866;48.020;11.720;2023-05-02T12:40:35;8.23;;;7.43;;
7647;SDS011;3866;48.020;11.720;2023-05-02T12:43:03;8.70;;;7.90;;
7647;SDS011;3866;48.020;11.720;2023-05-02T12:45:33;8.70;;;7.47;;
7647;SDS011;3866;48.020;11.720;2023-05-02T12:48:00;6.90;;;6.20;;
7647;SDS011;3866;48.020;11.720;2023-05-02T12:50:34;14.13;;;6.97;;
7647;SDS011;3866;48.020;11.720;2023-05-02T12:53:02;7.17;;;6.50;;
7647;SDS011;3866;48.020;11.720;2023-05-02T12:55:30;8.30;;;7.13;;
7647;SDS011;3866;48.020;11.720;2023-05-02T12:58:00;7.20;;;6.50;;
7647;SDS011;3866;48.020;11.720;2023-05-02T13:00:27;6.67;;;5.80;;
7647;SDS011;3866;48.020;11.720;2023-05-02T13:02:57;7.03;;;6.07;;
7647;SDS011;3866;48.020;11.720;2023-05-02T13:05:24;6.83;;;6.13;;
7647;SDS011;3866;48.020;11.720;2023-05-02T13:07:51;4.60;;;4.03;;
7647;SDS011;3866;48.020;11.720;2023-05-02T13:10:20;6.10;;;5.37;;
7647;SDS011;3866;48.020;11.720;2023-05-02T13:12:49;4.83;;;4.13;;
7647;SDS011;3866;48.020;11.720;2023-05-02T13:15:15;3.13;;;2.83;;
7647;SDS011;3866;48.020;11.720;2023-05-02T13:17:42;3.80;;;3.50;;
7647;SDS011;3866;48.020;11.720;2023-05-02T13:20:11;5.83;;;3.73;;
7647;SDS011;3866;48.020;11.720;2023-05-02T13:22:38;3.80;;;3.50;;
7647;SDS011;3866;48.020;11.720;2023-05-02T13:25:05;3.63;;;3.33;;
7647;SDS011;3866;48.020;11.720;2023-05-02T13:27:34;3.23;;;2.93;;
7647;SDS011;3866;48.020;11.720;2023-05-02T13:30:00;3.37;;;3.07;;
7647;SDS011;3866;48.020;11.720;2023-05-02T13:32:27;3.23;;;2.93;;
7647;SDS011;3866;48.020;11.720;2023-05-02T13:34:54;3.80;;;2.80;;
7647;SDS011;3866;48.020;11.720;2023-05-02T13:37:23;3.00;;;2.70;;
7647;SDS011;3866;48.020;11.720;2023-05-02T13:39:50;3.43;;;3.13;;
7647;SDS011;3866;48.020;11.720;2023-05-02T13:42:17;3.20;;;2.90;;
7647;SDS011;3866;48.020;11.720;2023-05-02T13:44:44;3.73;;;3.43;;
7647;SDS011;3866;48.020;11.720;2023-05-02T13:47:11;3.80;;;3.13;;
7647;SDS011;3866;48.020;11.720;2023-05-02T13:49:37;4.10;;;2.73;;
7647;SDS011;3866;48.020;11.720;2023-05-02T13:52:04;3.73;;;3.00;;
7647;SDS011;3866;48.020;11.720;2023-05-02T13:54:32;3.80;;;3.00;;
7647;SDS011;3866;48.020;11.720;2023-05-02T13:56:59;3.50;;;3.20;;
7647;SDS011;3866;48.020;11.720;2023-05-02T13:59:26;3.50;;;3.30;;
7647;SDS011;3866;48.020;11.720;2023-05-02T14:01:53;4.00;;;3.37;;
7647;SDS011;3866;48.020;11.720;2023-05-02T14:04:20;4.10;;;3.73;;
7647;SDS011;3866;48.020;11.720;2023-05-02T14:06:47;4.30;;;4.00;;
7647;SDS011;3866;48.020;11.720;2023-05-02T14:09:14;3.63;;;3.33;;
7647;SDS011;3866;48.020;11.720;2023-05-02T14:11:42;3.70;;;3.40;;
7647;SDS011;3866;48.020;11.720;2023-05-02T14:14:11;5.97;;;3.50;;
7647;SDS011;3866;48.020;11.720;2023-05-02T14:16:38;4.07;;;2.90;;
7647;SDS011;3866;48.020;11.720;2023-05-02T14:19:05;3.20;;;2.90;;
7647;SDS011;3866;48.020;11.720;2023-05-02T14:21:31;2.70;;;2.50;;
7647;SDS011;3866;48.020;11.720;2023-05-02T14:23:58;3.80;;;2.80;;
7647;SDS011;3866;48.020;11.720;2023-05-02T14:26:25;3.00;;;2.77;;
7647;SDS011;3866;48.020;11.720;2023-05-02T14:28:53;3.67;;;2.93;;
7647;SDS011;3866;48.020;11.720;2023-05-02T14:31:21;3.90;;;3.00;;
7647;SDS011;3866;48.020;11.720;2023-05-02T14:33:48;4.03;;;2.50;;
7647;SDS011;3866;48.020;11.720;2023-05-02T14:36:14;2.73;;;2.53;;
7647;SDS011;3866;48.020;11.720;2023-05-02T14:38:41;3.40;;;2.97;;
7647;SDS011;3866;48.020;11.720;2023-05-02T14:41:08;2.70;;;2.50;;
7647;SDS011;3866;48.020;11.720;2023-05-02T14:43:38;3.40;;;2.73;;
7647;SDS011;3866;48.020;11.720;2023-05-02T14:46:06;2.90;;;2.70;;
7647;SDS011;3866;48.020;11.720;2023-05-02T14:48:33;2.80;;;2.60;;
7647;SDS011;3866;48.020;11.720;2023-05-02T14:51:01;3.27;;;3.07;;
7647;SDS011;3866;48.020;11.720;2023-05-02T14:53:29;4.47;;;4.03;;
7647;SDS011;3866;48.020;11.720;2023-05-02T14:55:55;3.13;;;2.93;;
7647;SDS011;3866;48.020;11.720;2023-05-02T14:58:22;2.67;;;2.47;;
7647;SDS011;3866;48.020;11.720;2023-05-02T15:00:49;2.70;;;2.50;;
7647;SDS011;3866;48.020;11.720;2023-05-02T15:03:18;4.37;;;2.90;;
7647;SDS011;3866;48.020;11.720;2023-05-02T15:05:44;4.40;;;3.00;;
7647;SDS011;3866;48.020;11.720;2023-05-02T15:08:11;2.77;;;2.57;;
7647;SDS011;3866;48.020;11.720;2023-05-02T15:10:38;4.43;;;3.20;;
7647;SDS011;3866;48.020;11.720;2023-05-02T15:13:05;4.03;;;3.30;;
7647;SDS011;3866;48.020;11.720;2023-05-02T15:15:32;3.97;;;3.57;;
7647;SDS011;3866;48.020;11.720;2023-05-02T15:18:02;4.40;;;3.57;;
7647;SDS011;3866;48.020;11.720;2023-05-02T15:20:30;4.17;;;3.67;;